Time;durP1;ratioP1;P1;durP2;ratioP2;P2;SDS_P1;SDS_P2;PMS_P1;PMS_P2;Temp;Humidity;BMP_temperature;BMP_pressure;BME280_temperature;BME280_humidity;BME280_pressure;Samples;Min_cycle;Max_cycle;Signal;HPM_P1;HPM_P2
2022/03/26 00:00:50;;;;;;;14;11;;;;;;;6.27;61.92871;946.1387;;;;
2022/03/26 00:03:27;;;;;;;14.8;10.9;;;;;;;6.15;61.96875;946.119;;;;
2022/03/26 00:05:53;;;;;;;15.4;11.3;;;;;;;6.13;61.94141;946.1269;;;;
2022/03/26 00:08:19;;;;;;;15.1;10.8;;;;;;;6.02;62.14258;946.1274;;;;
2022/03/26 00:10:51;;;;;;;14.5;10.4;;;;;;;6.02;62.33301;946.162;;;;
2022/03/26 00:13:28;;;;;;;14.6;10.6;;;;;;;5.79;62.66113;946.1397;;;;
2022/03/26 00:16:10;;;;;;;15.1;10.7;;;;;;;5.79;62.71777;946.1727;;;;
2022/03/26 00:18:45;;;;;;;14.4;10.8;;;;;;;5.68;63.0166;946.1783;;;;
2022/03/26 00:21:23;;;;;;;14.8;10.6;;;;;;;5.6;63.54688;946.193;;;;
2022/03/26 00:24:00;;;;;;;15.8;11;;;;;;;5.66;63.25098;946.1626;;;;
2022/03/26 00:26:33;;;;;;;17.5;11.1;;;;;;;5.62;63.2793;946.072;;;;
2022/03/26 00:29:09;;;;;;;14;10.8;;;;;;;5.58;63.39746;946.2009;;;;
2022/03/26 00:31:46;;;;;;;16.5;10.7;;;;;;;5.57;63.49707;946.1301;;;;
2022/03/26 00:34:14;;;;;;;17;11.6;;;;;;;5.56;63.47363;946.1739;;;;
2022/03/26 00:36:40;;;;;;;15.1;11.2;;;;;;;5.51;63.98535;946.2131;;;;
2022/03/26 00:39:05;;;;;;;15.6;11.5;;;;;;;5.4;64.05957;946.3049;;;;
2022/03/26 00:41:37;;;;;;;17.2;11.5;;;;;;;5.53;65.20605;946.2391;;;;
2022/03/26 00:44:06;;;;;;;17.2;12.2;;;;;;;5.6;64.55078;946.1955;;;;
2022/03/26 00:46:32;;;;;;;15.7;12;;;;;;;5.68;64.1582;946.2371;;;;
2022/03/26 00:49:54;;;;;;;14.8;11.4;;;;;;;5.63;64.02637;946.2144;;;;
2022/03/26 00:52:18;;;;;;;14.7;10.9;;;;;;;5.45;63.99805;946.2192;;;;
2022/03/26 00:54:43;;;;;;;16.3;11.8;;;;;;;5.5;63.84766;946.1916;;;;
2022/03/26 00:57:09;;;;;;;17.5;11.2;;;;;;;5.41;64.25293;946.1752;;;;
2022/03/26 00:59:34;;;;;;;14.9;10.9;;;;;;;5.27;64.6582;946.1617;;;;
2022/03/26 01:02:00;;;;;;;14;10.4;;;;;;;5.1;65.12988;946.1834;;;;
2022/03/26 01:04:25;;;;;;;14.7;11.2;;;;;;;5.06;65.47266;946.1486;;;;
2022/03/26 01:06:50;;;;;;;16.5;11.1;;;;;;;4.99;65.75586;946.1833;;;;
2022/03/26 01:09:16;;;;;;;14.3;11;;;;;;;4.99;65.90137;946.1683;;;;
2022/03/26 01:11:42;;;;;;;14.1;11.2;;;;;;;4.88;66.17871;946.1401;;;;
2022/03/26 01:14:07;;;;;;;14.5;10.9;;;;;;;4.86;66.19727;946.1454;;;;
2022/03/26 01:16:33;;;;;;;14.4;10.7;;;;;;;4.69;66.96973;946.095;;;;
2022/03/26 01:18:59;;;;;;;16;10.7;;;;;;;4.59;67.3291;946.0875;;;;
2022/03/26 01:21:24;;;;;;;15.3;10.8;;;;;;;4.46;68.08398;946.087;;;;
2022/03/26 01:23:50;;;;;;;15.3;11.1;;;;;;;4.46;68.29688;946.0931;;;;
2022/03/26 01:26:15;;;;;;;14;10.7;;;;;;;4.51;68.1377;946.0444;;;;
2022/03/26 01:28:41;;;;;;;15.3;11.1;;;;;;;4.55;68.27734;945.9791;;;;
2022/03/26 01:31:06;;;;;;;15.7;11.1;;;;;;;4.54;68.1875;946.0379;;;;
2022/03/26 01:33:33;;;;;;;15;10.9;;;;;;;4.56;68.20117;946.0341;;;;
2022/03/26 01:35:58;;;;;;;15.9;11;;;;;;;4.5;68.65137;945.998;;;;
2022/03/26 01:38:24;;;;;;;16.3;11.4;;;;;;;4.48;68.96484;946.0248;;;;
2022/03/26 01:40:50;;;;;;;15;10.7;;;;;;;4.52;68.74609;945.9554;;;;
2022/03/26 01:43:16;;;;;;;16.9;12.3;;;;;;;4.52;68.81348;945.9847;;;;
2022/03/26 01:45:41;;;;;;;15.8;12.8;;;;;;;4.6;68.36523;945.9567;;;;
2022/03/26 01:48:06;;;;;;;14.4;10.8;;;;;;;4.56;68.21289;945.9363;;;;
2022/03/26 01:50:31;;;;;;;18.1;12.3;;;;;;;4.61;67.81445;945.9316;;;;
2022/03/26 01:52:56;;;;;;;15.9;11.7;;;;;;;4.59;67.7334;945.9241;;;;
2022/03/26 01:55:21;;;;;;;16.5;12.2;;;;;;;4.55;67.86133;945.9302;;;;
2022/03/26 01:57:47;;;;;;;16.6;11.9;;;;;;;4.66;67.46289;945.918;;;;
2022/03/26 02:00:12;;;;;;;15.6;11.3;;;;;;;4.76;67.08301;945.9292;;;;
2022/03/26 02:02:43;;;;;;;16.3;11.5;;;;;;;4.79;66.87305;945.947;;;;
2022/03/26 02:05:03;;;;;;;15.8;11.2;;;;;;;4.78;66.82813;945.8925;;;;
2022/03/26 02:07:29;;;;;;;15.9;11.1;;;;;;;4.74;66.84473;945.8647;;;;
2022/03/26 02:09:54;;;;;;;14.1;10.9;;;;;;;4.66;67.16895;945.8627;;;;
2022/03/26 02:12:19;;;;;;;15.2;11.3;;;;;;;4.57;67.48242;945.8505;;;;
2022/03/26 02:14:44;;;;;;;15.6;11.2;;;;;;;4.47;68.00684;945.9534;;;;
2022/03/26 02:17:10;;;;;;;13.9;11.3;;;;;;;4.26;68.88574;945.9564;;;;
2022/03/26 02:19:35;;;;;;;14.1;11.4;;;;;;;4.27;68.96387;945.9512;;;;
2022/03/26 02:22:00;;;;;;;15.1;11.4;;;;;;;4.34;68.69434;945.9188;;;;
2022/03/26 02:24:26;;;;;;;14.2;10.9;;;;;;;4.33;68.78125;945.9143;;;;
2022/03/26 02:26:51;;;;;;;15.2;11.8;;;;;;;4.41;68.45801;945.8929;;;;
2022/03/26 02:29:16;;;;;;;16.3;11.4;;;;;;;4.44;68.27148;945.9275;;;;
2022/03/26 02:31:44;;;;;;;14.8;11.3;;;;;;;4.44;68.22754;945.8873;;;;
2022/03/26 02:34:10;;;;;;;16.8;11.7;;;;;;;4.4;68.44531;945.9142;;;;
2022/03/26 02:36:35;;;;;;;14.6;10.7;;;;;;;4.38;68.41895;945.8702;;;;
2022/03/26 02:39:00;;;;;;;15.4;11.3;;;;;;;4.31;68.73535;945.8442;;;;
2022/03/26 02:41:26;;;;;;;16;11.6;;;;;;;4.14;69.30371;945.9238;;;;
2022/03/26 02:43:52;;;;;;;15.7;10.9;;;;;;;4.08;69.84473;945.9367;;;;
2022/03/26 02:46:17;;;;;;;17.4;11.8;;;;;;;4.12;69.78418;945.9222;;;;
2022/03/26 02:48:44;;;;;;;14.8;11.4;;;;;;;4.25;69.19727;945.9021;;;;
2022/03/26 02:51:09;;;;;;;16;11.5;;;;;;;4.3;69.10352;945.8823;;;;
2022/03/26 02:53:34;;;;;;;16.4;11.8;;;;;;;4.36;69.05859;945.9185;;;;
2022/03/26 02:56:01;;;;;;;16.6;11.9;;;;;;;4.53;68.35352;945.9025;;;;
2022/03/26 02:58:27;;;;;;;14.7;11;;;;;;;4.54;68.14063;945.9651;;;;
2022/03/26 03:00:52;;;;;;;15.5;11.6;;;;;;;4.63;67.64844;945.9916;;;;
2022/03/26 03:03:17;;;;;;;15.6;11.2;;;;;;;4.55;67.77246;945.9295;;;;
2022/03/26 03:05:46;;;;;;;14.3;11.3;;;;;;;4.35;68.5957;945.9857;;;;
2022/03/26 03:08:08;;;;;;;16.1;10.5;;;;;;;4.25;68.85938;946.0363;;;;
2022/03/26 03:10:32;;;;;;;15.7;11.2;;;;;;;4.13;69.26855;946.0062;;;;
2022/03/26 03:12:58;;;;;;;15.7;11.8;;;;;;;4.12;69.39063;946.0435;;;;
2022/03/26 03:15:26;;;;;;;18.1;11.4;;;;;;;4.21;69.08984;946.0193;;;;
2022/03/26 03:17:51;;;;;;;16.9;11.8;;;;;;;4.32;68.72559;946.0844;;;;
2022/03/26 03:20:16;;;;;;;16.6;11.8;;;;;;;4.23;68.96973;946.0559;;;;
2022/03/26 03:22:41;;;;;;;15.7;12;;;;;;;4.25;68.66992;946.0452;;;;
2022/03/26 03:25:10;;;;;;;15.2;11.2;;;;;;;4.24;68.76855;946.0652;;;;
2022/03/26 03:27:35;;;;;;;16.1;11.7;;;;;;;4.24;69.73633;946.1005;;;;
2022/03/26 03:30:01;;;;;;;17.7;12.2;;;;;;;4.25;69.33203;946.06;;;;
2022/03/26 03:32:26;;;;;;;15.6;11.3;;;;;;;4.16;69.375;946.0454;;;;
2022/03/26 03:34:51;;;;;;;15.4;11.6;;;;;;;4.17;69.29688;946.015;;;;
2022/03/26 03:37:17;;;;;;;15.5;10.5;;;;;;;4.07;69.70801;946.0859;;;;
2022/03/26 03:39:42;;;;;;;16.9;12.2;;;;;;;3.96;70.09473;946.0381;;;;
2022/03/26 03:42:08;;;;;;;16;11.3;;;;;;;3.89;70.07227;946.0617;;;;
2022/03/26 03:44:33;;;;;;;18.2;12.5;;;;;;;3.89;70.02734;946.0142;;;;
2022/03/26 03:46:58;;;;;;;14.8;11.2;;;;;;;3.94;69.75488;946.0672;;;;
2022/03/26 03:49:23;;;;;;;15.4;11.5;;;;;;;4.02;69.30566;946.0795;;;;
2022/03/26 03:51:49;;;;;;;14.8;11.3;;;;;;;4;69.13379;946.0792;;;;
2022/03/26 03:54:14;;;;;;;16.7;12.1;;;;;;;3.94;69.76465;946.0528;;;;
2022/03/26 03:56:38;;;;;;;16.8;11.8;;;;;;;3.82;70.03906;946.0324;;;;
2022/03/26 03:59:04;;;;;;;15.7;11.7;;;;;;;3.79;70.14551;946.1409;;;;
2022/03/26 04:02:33;;;;;;;16.6;11.4;;;;;;;3.82;70.37598;946.0797;;;;
2022/03/26 04:04:56;;;;;;;15.8;11.7;;;;;;;3.62;71.27539;946.0795;;;;
2022/03/26 04:07:21;;;;;;;18.3;12;;;;;;;3.45;72.03223;946.0753;;;;
2022/03/26 04:09:46;;;;;;;15.3;11.1;;;;;;;3.55;71.55566;946.0978;;;;
2022/03/26 04:12:12;;;;;;;14.9;11.2;;;;;;;3.68;71.18359;946.1528;;;;
2022/03/26 04:14:43;;;;;;;14.9;11;;;;;;;3.76;70.71387;946.1947;;;;
2022/03/26 04:17:02;;;;;;;16.7;11.2;;;;;;;3.64;71.08789;946.1403;;;;
2022/03/26 04:19:27;;;;;;;17;11.6;;;;;;;3.61;71.07031;946.1442;;;;
2022/03/26 04:21:54;;;;;;;19.7;13.2;;;;;;;3.55;71.4873;946.1848;;;;
2022/03/26 04:24:18;;;;;;;14.6;11;;;;;;;3.5;71.17578;946.1939;;;;
2022/03/26 04:27:24;;;;;;;17.5;11.9;;;;;;;3.51;71.37012;946.2275;;;;
2022/03/26 04:29:49;;;;;;;17.7;12;;;;;;;3.52;71.3252;946.3159;;;;
2022/03/26 04:32:23;;;;;;;17.4;12;;;;;;;3.48;71.56641;946.2172;;;;
2022/03/26 04:34:50;;;;;;;16.8;11.5;;;;;;;3.4;72.87793;946.3056;;;;
2022/03/26 04:37:15;;;;;;;18.4;12;;;;;;;3.42;73.09375;946.3162;;;;
2022/03/26 04:39:40;;;;;;;20.4;12.4;;;;;;;3.53;72.36035;946.3517;;;;
2022/03/26 04:42:05;;;;;;;17;11.9;;;;;;;3.62;71.78125;946.34;;;;
2022/03/26 04:44:30;;;;;;;16.8;12;;;;;;;3.6;71.66406;946.3384;;;;
2022/03/26 04:46:55;;;;;;;19;12.2;;;;;;;3.57;71.41113;946.337;;;;
2022/03/26 04:49:21;;;;;;;18.7;13;;;;;;;3.61;71.41895;946.4038;;;;
2022/03/26 04:51:45;;;;;;;19.1;13.3;;;;;;;3.62;71.49902;946.317;;;;
2022/03/26 04:54:11;;;;;;;20.2;13.3;;;;;;;3.43;71.92871;946.4659;;;;
2022/03/26 04:56:36;;;;;;;19.5;13.2;;;;;;;3.33;72.47363;946.4789;;;;
2022/03/26 04:59:02;;;;;;;17.1;12;;;;;;;3.32;72.60547;946.5442;;;;
2022/03/26 05:01:28;;;;;;;17;12.1;;;;;;;3.13;73.51563;946.6013;;;;
2022/03/26 05:06:18;;;;;;;18.7;13.4;;;;;;;3.08;73.78711;946.5547;;;;
2022/03/26 05:08:44;;;;;;;15;11.4;;;;;;;3.02;74.125;946.5528;;;;
2022/03/26 05:11:10;;;;;;;16.7;11.6;;;;;;;2.92;74.56641;946.5225;;;;
2022/03/26 05:13:35;;;;;;;17.2;11.8;;;;;;;2.78;75.25;946.568;;;;
2022/03/26 05:16:03;;;;;;;16.7;12.3;;;;;;;2.73;75.5791;946.4949;;;;
2022/03/26 05:18:26;;;;;;;17.6;12.7;;;;;;;2.73;75.84668;946.4852;;;;
2022/03/26 05:20:55;;;;;;;17.9;12.2;;;;;;;2.68;76.19727;946.5275;;;;
2022/03/26 05:23:17;;;;;;;17.1;11.9;;;;;;;2.67;76.25977;946.5109;;;;
2022/03/26 05:25:44;;;;;;;16.2;11.2;;;;;;;2.55;76.82227;946.5815;;;;
2022/03/26 05:28:09;;;;;;;17.3;12.9;;;;;;;2.56;77.20508;946.5186;;;;
2022/03/26 05:30:35;;;;;;;22.8;12.4;;;;;;;2.74;76.64355;946.5524;;;;
2022/03/26 05:33:00;;;;;;;17.1;11.6;;;;;;;2.82;76.0625;946.527;;;;
2022/03/26 05:35:25;;;;;;;16.3;11.7;;;;;;;2.87;75.73535;946.4683;;;;
2022/03/26 05:37:50;;;;;;;15.3;11.6;;;;;;;2.83;75.66406;946.5483;;;;
2022/03/26 05:41:09;;;;;;;16.3;11.4;;;;;;;2.91;75.42969;946.5466;;;;
2022/03/26 05:43:36;;;;;;;16.3;11.3;;;;;;;3.01;74.86426;946.4953;;;;
2022/03/26 05:46:01;;;;;;;16.6;11.6;;;;;;;3.03;74.72168;946.4437;;;;
2022/03/26 05:50:51;;;;;;;16.1;11.7;;;;;;;3.03;74.78906;946.5631;;;;
2022/03/26 05:53:16;;;;;;;15.4;10.8;;;;;;;3.38;73.92871;946.5227;;;;
2022/03/26 05:55:41;;;;;;;15.6;11;;;;;;;3.85;71.88672;946.552;;;;
2022/03/26 05:58:06;;;;;;;18.5;10.9;;;;;;;4.15;70.86816;946.5506;;;;
2022/03/26 06:00:33;;;;;;;16.7;10.8;;;;;;;5.06;67.64844;946.5804;;;;
2022/03/26 06:02:58;;;;;;;16.3;10.8;;;;;;;5.45;65.68164;946.5094;;;;
2022/03/26 06:05:23;;;;;;;18.2;10.1;;;;;;;5.78;64.52148;946.5349;;;;
2022/03/26 06:07:50;;;;;;;14.5;9.8;;;;;;;6.27;62.95801;946.4528;;;;
2022/03/26 06:10:13;;;;;;;15.3;10.1;;;;;;;6.73;60.52246;946.5474;;;;
2022/03/26 06:12:40;;;;;;;15;9.5;;;;;;;6.34;61.81348;946.4547;;;;
2022/03/26 06:15:06;;;;;;;15.6;10.2;;;;;;;6.52;61.19629;946.6289;;;;
2022/03/26 06:17:31;;;;;;;12.3;9.1;;;;;;;7.62;58.06348;946.5662;;;;
2022/03/26 06:19:56;;;;;;;11.9;9.2;;;;;;;6.99;59.25879;946.5873;;;;
2022/03/26 06:22:22;;;;;;;15.9;10;;;;;;;6.63;60.88184;946.6219;;;;
2022/03/26 06:24:47;;;;;;;12.6;9.8;;;;;;;6.9;60.37695;946.4944;;;;
2022/03/26 06:27:12;;;;;;;12.1;9.2;;;;;;;7;59.96094;946.6099;;;;
2022/03/26 06:29:38;;;;;;;14.8;9.7;;;;;;;7.24;59.83691;946.5683;;;;
2022/03/26 06:32:04;;;;;;;13.8;9.6;;;;;;;8.12;56.87109;946.5856;;;;
2022/03/26 06:34:29;;;;;;;12.5;9.3;;;;;;;8.51;55.62695;946.5653;;;;
2022/03/26 06:36:54;;;;;;;16.6;9.6;;;;;;;8.82;54.84961;946.6205;;;;
2022/03/26 06:39:19;;;;;;;12.3;9.2;;;;;;;9.47;53.42773;946.5991;;;;
2022/03/26 06:41:44;;;;;;;11.1;8.6;;;;;;;9.85;51.6748;946.5856;;;;
2022/03/26 06:44:10;;;;;;;17.5;10.1;;;;;;;10.2;50.56348;946.6;;;;
2022/03/26 06:46:35;;;;;;;16;10.3;;;;;;;9.81;51.48633;946.5003;;;;
2022/03/26 06:49:02;;;;;;;13.2;9.1;;;;;;;9.97;50.94629;946.5408;;;;
2022/03/26 06:51:27;;;;;;;11.8;9.1;;;;;;;10.61;49.92578;946.5978;;;;
2022/03/26 06:53:53;;;;;;;13;9.6;;;;;;;10.46;49.31445;946.5274;;;;
2022/03/26 06:56:35;;;;;;;16.4;9.9;;;;;;;10.49;49.5127;946.5903;;;;
2022/03/26 06:58:59;;;;;;;14.2;9.5;;;;;;;10.34;49.99707;946.5053;;;;
2022/03/26 07:01:24;;;;;;;14;9.5;;;;;;;10.16;51.02539;946.5322;;;;
2022/03/26 07:03:49;;;;;;;13.3;8.9;;;;;;;10.59;48.89551;946.5758;;;;
2022/03/26 07:06:15;;;;;;;12.3;9.6;;;;;;;10.47;49.03027;946.5818;;;;
2022/03/26 07:08:40;;;;;;;12.9;9.3;;;;;;;10.86;48.32227;946.5823;;;;
2022/03/26 07:11:05;;;;;;;11.7;9;;;;;;;11.11;47.86914;946.5966;;;;
2022/03/26 07:13:30;;;;;;;12;8.8;;;;;;;11.04;48.14648;946.5712;;;;
2022/03/26 07:15:56;;;;;;;15.1;9.3;;;;;;;10.74;48.20508;946.5795;;;;
2022/03/26 07:18:21;;;;;;;15.3;9.8;;;;;;;10.82;48.73828;946.5313;;;;
2022/03/26 07:20:48;;;;;;;12;8.5;;;;;;;10.7;48.38281;946.5961;;;;
2022/03/26 07:23:13;;;;;;;11;8.3;;;;;;;10.74;47.91992;946.5818;;;;
2022/03/26 07:25:39;;;;;;;13.4;8.4;;;;;;;11.13;46.94531;946.5182;;;;
2022/03/26 07:28:05;;;;;;;17;9;;;;;;;11.23;46.77148;946.5906;;;;
2022/03/26 07:30:29;;;;;;;12.3;8.4;;;;;;;11.43;45.71875;946.6093;;;;
2022/03/26 07:32:54;;;;;;;13.6;8.8;;;;;;;11.64;44.92773;946.5903;;;;
2022/03/26 07:35:19;;;;;;;13.7;8.8;;;;;;;11.81;45.1748;946.5061;;;;
2022/03/26 07:37:45;;;;;;;12.6;8.9;;;;;;;12.18;43.82617;946.5058;;;;
2022/03/26 07:40:10;;;;;;;15.7;8.7;;;;;;;12.57;43.38477;946.5269;;;;
2022/03/26 07:42:36;;;;;;;14;9;;;;;;;13.57;41.23047;946.4737;;;;
2022/03/26 07:45:01;;;;;;;14.3;8.9;;;;;;;13.57;41.5752;946.4761;;;;
2022/03/26 07:47:27;;;;;;;15.8;8.7;;;;;;;13.73;40.08398;946.4397;;;;
2022/03/26 07:49:52;;;;;;;12.1;8.4;;;;;;;13.63;40.59277;946.4235;;;;
2022/03/26 07:52:18;;;;;;;11.8;8.6;;;;;;;14.47;38.62012;946.3773;;;;
2022/03/26 07:54:43;;;;;;;12.5;9.1;;;;;;;14.38;38.50781;946.3784;;;;
2022/03/26 07:57:08;;;;;;;11.2;8.4;;;;;;;16.73;34.8125;946.3448;;;;
2022/03/26 07:59:33;;;;;;;12.8;8.9;;;;;;;16.23;34.92383;946.336;;;;
2022/03/26 08:01:58;;;;;;;15.5;8.3;;;;;;;17.31;33.39844;946.2919;;;;
2022/03/26 08:04:23;;;;;;;15.5;8.6;;;;;;;16.4;34.69434;946.2975;;;;
2022/03/26 08:06:48;;;;;;;13.4;9;;;;;;;16.63;34.49219;946.2859;;;;
2022/03/26 08:09:15;;;;;;;15.3;8.7;;;;;;;17.86;32.70801;946.2648;;;;
2022/03/26 08:11:40;;;;;;;13.3;8.6;;;;;;;19.26;30.58691;946.2424;;;;
2022/03/26 08:14:05;;;;;;;11.1;8.4;;;;;;;17.88;31.21094;946.2583;;;;
2022/03/26 08:16:30;;;;;;;14.1;8.4;;;;;;;17.15;32.86426;946.2777;;;;
2022/03/26 08:18:57;;;;;;;11.2;8.2;;;;;;;17.34;32.64648;946.2097;;;;
2022/03/26 08:21:22;;;;;;;12;8.2;;;;;;;17.13;32.25977;946.2029;;;;
2022/03/26 08:23:47;;;;;;;11.6;8.1;;;;;;;16.78;33.2998;946.1541;;;;
2022/03/26 08:26:22;;;;;;;13.2;9.2;;;;;;;16.77;33.03223;946.2056;;;;
2022/03/26 08:28:39;;;;;;;14.5;9.2;;;;;;;17.4;32.67383;946.1354;;;;
2022/03/26 08:31:04;;;;;;;12.6;8.4;;;;;;;19.64;28.62012;946.1523;;;;
2022/03/26 08:34:20;;;;;;;12.4;9.1;;;;;;;21.68;26.86621;946.0858;;;;
2022/03/26 08:36:43;;;;;;;13;8.3;;;;;;;23.82;23.9834;946.1797;;;;
2022/03/26 08:39:08;;;;;;;15.5;8.8;;;;;;;21.93;24.58496;946.1365;;;;
2022/03/26 08:41:33;;;;;;;11.1;8.1;;;;;;;22.99;24.15039;946.1278;;;;
2022/03/26 08:43:58;;;;;;;11.9;8.6;;;;;;;25.2;22.13379;946.0478;;;;
2022/03/26 08:46:24;;;;;;;14.7;8.4;;;;;;;26.17;20.72656;946.0505;;;;
2022/03/26 08:48:49;;;;;;;12.9;8.1;;;;;;;24.93;23.18164;946.1144;;;;
2022/03/26 08:51:14;;;;;;;12.1;8.3;;;;;;;27.41;19.69238;946.028;;;;
2022/03/26 08:53:39;;;;;;;11.4;8.2;;;;;;;27.52;20.46875;946.0605;;;;
2022/03/26 08:56:06;;;;;;;10.7;7.7;;;;;;;29.42;18.5293;946.0547;;;;
2022/03/26 08:58:29;;;;;;;10.4;7.5;;;;;;;29.73;17.83887;946.0266;;;;
2022/03/26 09:00:55;;;;;;;10.9;7.9;;;;;;;29.36;17.60938;946.0619;;;;
2022/03/26 09:03:21;;;;;;;12.3;8.6;;;;;;;28.55;18.56445;946.0306;;;;
2022/03/26 09:05:46;;;;;;;9.9;8.2;;;;;;;29.21;18.54492;946.0876;;;;
2022/03/26 09:08:11;;;;;;;10.6;7.3;;;;;;;27.72;20.91699;946.0927;;;;
2022/03/26 09:10:37;;;;;;;10.6;7.7;;;;;;;26.09;22.56836;946.0806;;;;
2022/03/26 09:13:02;;;;;;;9.7;7.7;;;;;;;25.99;22.31445;946.0759;;;;
2022/03/26 09:15:31;;;;;;;13.8;8.1;;;;;;;24.95;23.17188;946.1046;;;;
2022/03/26 09:17:56;;;;;;;13.5;8.1;;;;;;;24.56;23.49316;946.0812;;;;
2022/03/26 09:20:23;;;;;;;11.2;8.3;;;;;;;23.58;25.47656;946.1025;;;;
2022/03/26 09:22:48;;;;;;;13.8;7.7;;;;;;;23.54;25.33301;946.109;;;;
2022/03/26 09:25:16;;;;;;;10.8;7.9;;;;;;;23.54;24.99219;946.1252;;;;
2022/03/26 09:27:40;;;;;;;12.4;8.5;;;;;;;22.86;25.79883;946.1443;;;;
2022/03/26 09:30:06;;;;;;;9.2;7.3;;;;;;;23.93;24.77832;946.144;;;;
2022/03/26 09:32:30;;;;;;;11.1;8.1;;;;;;;24.24;24.30078;946.063;;;;
2022/03/26 09:34:55;;;;;;;11.1;8.1;;;;;;;23.5;25.27148;946.1175;;;;
2022/03/26 09:37:21;;;;;;;12.7;8.1;;;;;;;23.54;25.13281;946.0903;;;;
2022/03/26 09:39:47;;;;;;;12.2;8.2;;;;;;;23.87;25.06836;946.0737;;;;
2022/03/26 09:42:12;;;;;;;14.7;8.7;;;;;;;23.8;24.86523;946.0801;;;;
2022/03/26 09:44:37;;;;;;;12.5;8.2;;;;;;;24.1;24.10449;946.0808;;;;
2022/03/26 09:47:03;;;;;;;12.4;8.8;;;;;;;23.46;25.69238;946.0309;;;;
2022/03/26 09:49:27;;;;;;;13.7;8.6;;;;;;;23.32;25.82617;946.0904;;;;
2022/03/26 09:51:53;;;;;;;13.5;8.8;;;;;;;23.61;25.56055;946.057;;;;
2022/03/26 09:54:17;;;;;;;13.5;8.9;;;;;;;23.31;25.93164;946.063;;;;
2022/03/26 09:56:44;;;;;;;12.2;8.8;;;;;;;24.21;24.46387;946.0139;;;;
2022/03/26 09:59:09;;;;;;;11.6;8.8;;;;;;;24.67;24.32422;945.9899;;;;
2022/03/26 10:01:34;;;;;;;14.1;9.2;;;;;;;24.03;25.56055;946.0306;;;;
2022/03/26 10:03:59;;;;;;;14.5;9.1;;;;;;;23.45;26.13867;945.957;;;;
2022/03/26 10:06:26;;;;;;;12.7;9;;;;;;;23.14;26.0498;946.052;;;;
2022/03/26 10:08:51;;;;;;;13.6;9.4;;;;;;;23.05;26.97266;946.0105;;;;
2022/03/26 10:11:17;;;;;;;13.2;9.4;;;;;;;22.8;27.63867;945.9853;;;;
2022/03/26 10:13:43;;;;;;;13;9;;;;;;;23.12;26.37793;945.9218;;;;
2022/03/26 10:16:08;;;;;;;17.5;9.9;;;;;;;22.9;27.45801;945.91;;;;
2022/03/26 10:18:33;;;;;;;12.8;9.1;;;;;;;22.67;26.9502;945.947;;;;
2022/03/26 10:20:59;;;;;;;14;9.5;;;;;;;22.67;27.11426;945.9082;;;;
2022/03/26 10:23:24;;;;;;;13.6;8.7;;;;;;;23.1;26.92969;945.9498;;;;
2022/03/26 10:25:49;;;;;;;12.6;9.2;;;;;;;23.69;26.57617;945.9501;;;;
2022/03/26 10:28:14;;;;;;;14.1;9.9;;;;;;;25;23.81152;945.9091;;;;
2022/03/26 10:33:04;;;;;;;12.5;9.1;;;;;;;24.59;24.99219;945.9188;;;;
2022/03/26 10:35:30;;;;;;;13.5;9.5;;;;;;;24.94;24.10352;945.8059;;;;
2022/03/26 10:37:56;;;;;;;15.7;9.8;;;;;;;24.69;24.41992;945.8247;;;;
2022/03/26 10:40:20;;;;;;;13;9.1;;;;;;;24.9;24.18359;945.8091;;;;
2022/03/26 10:42:45;;;;;;;16.3;10.1;;;;;;;25.49;24.42773;945.8015;;;;
2022/03/26 10:45:13;;;;;;;15;10.2;;;;;;;25.97;24.08691;945.7199;;;;
2022/03/26 10:47:38;;;;;;;14.7;10.8;;;;;;;24.49;25.7998;945.7527;;;;
2022/03/26 10:50:03;;;;;;;16;10.6;;;;;;;23.74;26.62695;945.7949;;;;
2022/03/26 10:52:30;;;;;;;16.8;10.9;;;;;;;24.34;24.86035;945.7436;;;;
2022/03/26 10:54:55;;;;;;;14.4;10.5;;;;;;;24.71;25.24609;945.7328;;;;
2022/03/26 10:57:20;;;;;;;15.4;10.7;;;;;;;24.96;24.43457;945.7693;;;;
2022/03/26 10:59:45;;;;;;;14.5;10;;;;;;;25.34;24.1709;945.6184;;;;
2022/03/26 11:02:10;;;;;;;16.3;11.1;;;;;;;24.34;25.48438;945.6906;;;;
2022/03/26 11:04:35;;;;;;;14;10.9;;;;;;;24.31;24.92871;945.676;;;;
2022/03/26 11:07:00;;;;;;;17.3;10.8;;;;;;;24.75;24.32813;945.6925;;;;
2022/03/26 11:09:25;;;;;;;16.4;10.7;;;;;;;25.21;24.55371;945.6669;;;;
2022/03/26 11:11:50;;;;;;;14.7;10.9;;;;;;;24.41;24.53418;945.6964;;;;
2022/03/26 11:14:16;;;;;;;14.9;10.8;;;;;;;24.22;24.4873;945.6516;;;;
2022/03/26 11:16:41;;;;;;;15.8;11.3;;;;;;;24.27;24.67871;945.6428;;;;
2022/03/26 11:19:07;;;;;;;15;11.3;;;;;;;24.35;24.36523;945.626;;;;
2022/03/26 11:25:12;;;;;;;17.3;11.5;;;;;;;23.46;26.35059;945.5041;;;;
2022/03/26 11:27:38;;;;;;;19.1;11.5;;;;;;;23.31;26.37793;945.4843;;;;
2022/03/26 11:30:04;;;;;;;17.7;12.1;;;;;;;23.68;26.39941;945.4846;;;;
2022/03/26 11:32:28;;;;;;;16.6;11.6;;;;;;;23.65;26.49219;945.4738;;;;
2022/03/26 11:34:53;;;;;;;17.2;12.3;;;;;;;23.72;26.67285;945.5305;;;;
2022/03/26 11:37:18;;;;;;;15.6;11.6;;;;;;;24.09;26.6123;945.4627;;;;
2022/03/26 11:39:43;;;;;;;19.5;12.4;;;;;;;24.39;25.78223;945.4356;;;;
2022/03/26 11:42:08;;;;;;;18.2;12.4;;;;;;;24.48;26.28223;945.3564;;;;
2022/03/26 11:44:33;;;;;;;17.1;12.5;;;;;;;23.43;27.36035;945.4464;;;;
2022/03/26 11:51:52;;;;;;;15.9;11.8;;;;;;;25.96;23.67285;945.3653;;;;
2022/03/26 11:54:18;;;;;;;20.9;12.4;;;;;;;25.89;23.59863;945.3283;;;;
2022/03/26 11:56:42;;;;;;;18;12.2;;;;;;;25.12;24.47852;945.3176;;;;
2022/03/26 11:59:07;;;;;;;19;12.3;;;;;;;25.2;24.43555;945.2562;;;;
2022/03/26 12:01:32;;;;;;;17.7;12.1;;;;;;;25.51;24.08691;945.2134;;;;
2022/03/26 12:03:57;;;;;;;15.2;11.1;;;;;;;26.44;23.21289;945.2258;;;;
2022/03/26 12:06:37;;;;;;;18.9;12;;;;;;;25.36;24.49121;945.0844;;;;
2022/03/26 12:08:48;;;;;;;16.5;12.2;;;;;;;24.79;25.54492;945.168;;;;
2022/03/26 12:11:14;;;;;;;18.9;12;;;;;;;25.74;24.31152;945.0953;;;;
2022/03/26 12:13:39;;;;;;;19.1;12.5;;;;;;;26.44;23.98242;945.0461;;;;
2022/03/26 12:16:05;;;;;;;17.8;12.2;;;;;;;25.91;24.45117;945.0588;;;;
2022/03/26 12:18:47;;;;;;;16.1;12.1;;;;;;;26.4;24.24121;945.0636;;;;
2022/03/26 12:21:12;;;;;;;17.6;12.2;;;;;;;27.19;23.0625;945.0576;;;;
2022/03/26 12:23:38;;;;;;;19.3;12.7;;;;;;;26.68;23.27246;945.0278;;;;
2022/03/26 12:26:03;;;;;;;20;12.4;;;;;;;27.57;22.2627;945.0359;;;;
2022/03/26 12:28:28;;;;;;;18.7;12.3;;;;;;;28.75;21.17871;944.974;;;;
2022/03/26 12:30:53;;;;;;;18.1;11.7;;;;;;;28.74;21.48828;944.9542;;;;
2022/03/26 12:33:18;;;;;;;21.1;13;;;;;;;28.53;21.27539;944.9462;;;;
2022/03/26 12:35:43;;;;;;;17.3;12.2;;;;;;;28.33;21.52832;944.9387;;;;
2022/03/26 12:38:08;;;;;;;17.8;12.2;;;;;;;28.05;22.1084;944.8722;;;;
2022/03/26 12:40:34;;;;;;;18.5;12.4;;;;;;;26.98;23.35938;944.8918;;;;
2022/03/26 12:42:58;;;;;;;17.6;12.5;;;;;;;27.08;22.97363;944.832;;;;
2022/03/26 12:45:24;;;;;;;17.5;12.6;;;;;;;27.66;23.07422;944.7715;;;;
2022/03/26 12:47:49;;;;;;;20.3;12.4;;;;;;;26.22;24.11328;944.7992;;;;
2022/03/26 12:50:15;;;;;;;18.8;12.4;;;;;;;25.86;23.97461;944.7728;;;;
2022/03/26 12:52:42;;;;;;;15.9;11.8;;;;;;;27.3;23.05566;944.7657;;;;
2022/03/26 12:55:07;;;;;;;20.7;12.6;;;;;;;27.41;22.40918;944.7388;;;;
2022/03/26 12:58:58;;;;;;;18.8;12.6;;;;;;;27.58;22.1084;944.778;;;;
2022/03/26 12:59:58;;;;;;;19.9;13.8;;;;;;;26.96;23.10938;944.7701;;;;
2022/03/26 13:02:23;;;;;;;20.4;12.9;;;;;;;26.08;23.91602;944.7325;;;;
2022/03/26 13:04:48;;;;;;;21.1;14.6;;;;;;;25.53;24.25293;944.6981;;;;
2022/03/26 13:07:13;;;;;;;21.1;14.7;;;;;;;25;24.60156;944.7316;;;;
2022/03/26 13:09:38;;;;;;;21;13.9;;;;;;;26.28;23.34668;944.7604;;;;
2022/03/26 13:12:04;;;;;;;40.5;16.6;;;;;;;25.92;24.32129;944.6791;;;;
2022/03/26 13:14:29;;;;;;;51.2;15.9;;;;;;;25.71;24.01367;944.6258;;;;
2022/03/26 13:16:54;;;;;;;40.3;15.8;;;;;;;25.89;23.48047;944.6516;;;;
2022/03/26 13:19:19;;;;;;;23.3;14.2;;;;;;;25.54;24.21777;944.5975;;;;
2022/03/26 13:21:44;;;;;;;20.3;13.4;;;;;;;25.69;23.97754;944.5759;;;;
2022/03/26 13:24:09;;;;;;;22.1;13.9;;;;;;;26.15;23.20996;944.5408;;;;
2022/03/26 13:26:34;;;;;;;21.4;14.5;;;;;;;26.17;23.47168;944.5717;;;;
2022/03/26 13:28:59;;;;;;;21.1;13.7;;;;;;;25.66;24;944.608;;;;
2022/03/26 13:31:26;;;;;;;21.6;13.3;;;;;;;26.76;22.47168;944.486;;;;
2022/03/26 13:33:51;;;;;;;20.8;13.8;;;;;;;25.5;23.25879;944.4727;;;;
2022/03/26 13:36:17;;;;;;;22.1;14.6;;;;;;;24.19;25.0752;944.5005;;;;
2022/03/26 13:38:42;;;;;;;21.8;15;;;;;;;24.63;23.90918;944.5471;;;;
2022/03/26 13:41:08;;;;;;;22;14.4;;;;;;;25.86;23.04102;944.5165;;;;
2022/03/26 13:43:34;;;;;;;22.4;14.5;;;;;;;24.81;23.90625;944.5074;;;;
2022/03/26 13:46:00;;;;;;;23;14.9;;;;;;;25.06;23.625;944.5245;;;;
2022/03/26 13:48:26;;;;;;;24.1;14.8;;;;;;;24.24;25.00781;944.4196;;;;
2022/03/26 13:50:51;;;;;;;20.9;14.6;;;;;;;24.31;24.85742;944.4323;;;;
2022/03/26 13:53:16;;;;;;;21.3;14.8;;;;;;;24.37;24.47266;944.4742;;;;
2022/03/26 13:55:41;;;;;;;21.6;14.2;;;;;;;25.13;24.125;944.4275;;;;
2022/03/26 13:58:08;;;;;;;22;14.8;;;;;;;24.82;24.06055;944.3994;;;;
2022/03/26 14:00:32;;;;;;;21.9;14.9;;;;;;;24.12;24.88281;944.3663;;;;
2022/03/26 14:02:57;;;;;;;21.1;14.8;;;;;;;23.37;26.24023;944.308;;;;
2022/03/26 14:05:26;;;;;;;23.2;15.5;;;;;;;22.97;26.09863;944.395;;;;
2022/03/26 14:07:47;;;;;;;22.7;15.6;;;;;;;22.48;27.93555;944.3444;;;;
2022/03/26 14:10:13;;;;;;;32.2;17.4;;;;;;;22.4;27.89551;944.3704;;;;
2022/03/26 14:12:38;;;;;;;23.6;15.8;;;;;;;22.93;26.07324;944.3953;;;;
2022/03/26 14:15:03;;;;;;;24.6;16.7;;;;;;;23.3;25.51953;944.3215;;;;
2022/03/26 14:17:28;;;;;;;24;15.4;;;;;;;23.23;26.24316;944.4352;;;;
2022/03/26 14:19:53;;;;;;;23.2;16.5;;;;;;;23.18;25.54688;944.2875;;;;
2022/03/26 14:22:18;;;;;;;22;15.4;;;;;;;22.4;26.76953;944.3859;;;;